sensor_id;sensor_type;location;lat;lon;timestamp;P1;durP1;ratioP1;P2;durP2;ratioP2
29954;SDS011;68448;51.188;6.868;2024-01-25T00:01:06;37.27;;;8.97;;
29954;SDS011;68448;51.188;6.868;2024-01-25T00:03:35;42.67;;;8.10;;
29954;SDS011;68448;51.188;6.868;2024-01-25T00:06:03;39.73;;;8.60;;
29954;SDS011;68448;51.188;6.868;2024-01-25T00:08:31;51.73;;;9.13;;
29954;SDS011;68448;51.188;6.868;2024-01-25T00:10:59;34.77;;;9.13;;
29954;SDS011;68448;51.188;6.868;2024-01-25T00:13:26;35.97;;;7.80;;
29954;SDS011;68448;51.188;6.868;2024-01-25T00:15:53;33.73;;;8.73;;
29954;SDS011;68448;51.188;6.868;2024-01-25T00:18:21;37.77;;;9.63;;
29954;SDS011;68448;51.188;6.868;2024-01-25T00:20:50;43.77;;;10.13;;
29954;SDS011;68448;51.188;6.868;2024-01-25T00:23:17;31.07;;;9.10;;
29954;SDS011;68448;51.188;6.868;2024-01-25T00:25:44;36.63;;;8.33;;
29954;SDS011;68448;51.188;6.868;2024-01-25T00:28:12;31.13;;;8.17;;
29954;SDS011;68448;51.188;6.868;2024-01-25T00:30:39;39.03;;;9.10;;
29954;SDS011;68448;51.188;6.868;2024-01-25T00:33:07;44.13;;;8.63;;
29954;SDS011;68448;51.188;6.868;2024-01-25T00:35:35;32.10;;;8.43;;
29954;SDS011;68448;51.188;6.868;2024-01-25T00:38:05;36.93;;;9.53;;
29954;SDS011;68448;51.188;6.868;2024-01-25T00:40:32;30.63;;;8.20;;
29954;SDS011;68448;51.188;6.868;2024-01-25T00:43:00;39.30;;;8.00;;
29954;SDS011;68448;51.188;6.868;2024-01-25T00:45:28;33.70;;;7.47;;
29954;SDS011;68448;51.188;6.868;2024-01-25T00:47:56;50.27;;;8.77;;
29954;SDS011;68448;51.188;6.868;2024-01-25T00:50:24;27.87;;;6.37;;
29954;SDS011;68448;51.188;6.868;2024-01-25T00:52:52;28.87;;;8.73;;
29954;SDS011;68448;51.188;6.868;2024-01-25T00:55:21;35.80;;;8.43;;
29954;SDS011;68448;51.188;6.868;2024-01-25T00:57:49;41.87;;;8.80;;
29954;SDS011;68448;51.188;6.868;2024-01-25T01:00:17;30.17;;;7.63;;
29954;SDS011;68448;51.188;6.868;2024-01-25T01:02:46;34.17;;;9.17;;
29954;SDS011;68448;51.188;6.868;2024-01-25T01:05:14;33.73;;;8.93;;
29954;SDS011;68448;51.188;6.868;2024-01-25T01:07:41;42.77;;;9.90;;
29954;SDS011;68448;51.188;6.868;2024-01-25T01:10:09;45.27;;;8.63;;
29954;SDS011;68448;51.188;6.868;2024-01-25T01:12:38;38.37;;;9.80;;
29954;SDS011;68448;51.188;6.868;2024-01-25T01:15:06;33.83;;;8.83;;
29954;SDS011;68448;51.188;6.868;2024-01-25T01:17:33;40.53;;;9.20;;
29954;SDS011;68448;51.188;6.868;2024-01-25T01:20:01;52.53;;;9.37;;
29954;SDS011;68448;51.188;6.868;2024-01-25T01:22:28;48.87;;;7.83;;
29954;SDS011;68448;51.188;6.868;2024-01-25T01:24:56;29.13;;;8.13;;
29954;SDS011;68448;51.188;6.868;2024-01-25T01:27:23;40.20;;;8.53;;
29954;SDS011;68448;51.188;6.868;2024-01-25T01:29:52;48.40;;;9.20;;
29954;SDS011;68448;51.188;6.868;2024-01-25T01:32:19;30.13;;;8.60;;
29954;SDS011;68448;51.188;6.868;2024-01-25T01:34:46;37.80;;;9.10;;
29954;SDS011;68448;51.188;6.868;2024-01-25T01:37:14;42.83;;;10.17;;
29954;SDS011;68448;51.188;6.868;2024-01-25T01:39:41;27.43;;;8.40;;
29954;SDS011;68448;51.188;6.868;2024-01-25T01:42:08;41.03;;;9.90;;
29954;SDS011;68448;51.188;6.868;2024-01-25T01:44:35;41.43;;;9.90;;
29954;SDS011;68448;51.188;6.868;2024-01-25T01:47:04;44.03;;;10.47;;
29954;SDS011;68448;51.188;6.868;2024-01-25T01:49:32;43.27;;;9.17;;
29954;SDS011;68448;51.188;6.868;2024-01-25T01:51:59;51.00;;;9.00;;
29954;SDS011;68448;51.188;6.868;2024-01-25T01:54:27;44.07;;;9.33;;
29954;SDS011;68448;51.188;6.868;2024-01-25T01:56:57;37.47;;;9.80;;
29954;SDS011;68448;51.188;6.868;2024-01-25T01:59:24;45.60;;;10.40;;
29954;SDS011;68448;51.188;6.868;2024-01-25T02:01:52;44.67;;;8.20;;
29954;SDS011;68448;51.188;6.868;2024-01-25T02:04:21;48.37;;;9.60;;
29954;SDS011;68448;51.188;6.868;2024-01-25T02:06:48;36.53;;;8.80;;
29954;SDS011;68448;51.188;6.868;2024-01-25T02:09:16;48.27;;;9.37;;
29954;SDS011;68448;51.188;6.868;2024-01-25T02:11:44;28.97;;;6.77;;
29954;SDS011;68448;51.188;6.868;2024-01-25T02:14:11;36.63;;;9.67;;
29954;SDS011;68448;51.188;6.868;2024-01-25T02:16:38;48.20;;;10.67;;
29954;SDS011;68448;51.188;6.868;2024-01-25T02:19:06;34.43;;;8.97;;
29954;SDS011;68448;51.188;6.868;2024-01-25T02:21:35;41.17;;;8.77;;
29954;SDS011;68448;51.188;6.868;2024-01-25T02:24:04;45.97;;;8.50;;
29954;SDS011;68448;51.188;6.868;2024-01-25T02:26:31;42.47;;;10.00;;
29954;SDS011;68448;51.188;6.868;2024-01-25T02:28:58;47.83;;;9.70;;
29954;SDS011;68448;51.188;6.868;2024-01-25T02:31:26;67.07;;;10.20;;
29954;SDS011;68448;51.188;6.868;2024-01-25T02:33:53;44.50;;;9.70;;
29954;SDS011;68448;51.188;6.868;2024-01-25T02:36:21;33.63;;;9.47;;
29954;SDS011;68448;51.188;6.868;2024-01-25T02:38:49;43.87;;;8.93;;
29954;SDS011;68448;51.188;6.868;2024-01-25T02:41:17;43.73;;;9.07;;
29954;SDS011;68448;51.188;6.868;2024-01-25T02:43:45;40.83;;;11.70;;
29954;SDS011;68448;51.188;6.868;2024-01-25T02:46:12;40.97;;;9.43;;
29954;SDS011;68448;51.188;6.868;2024-01-25T02:48:39;52.90;;;10.80;;
29954;SDS011;68448;51.188;6.868;2024-01-25T02:51:06;61.57;;;9.83;;
29954;SDS011;68448;51.188;6.868;2024-01-25T02:53:34;49.57;;;10.67;;
29954;SDS011;68448;51.188;6.868;2024-01-25T02:56:01;51.13;;;11.33;;
29954;SDS011;68448;51.188;6.868;2024-01-25T02:58:29;45.03;;;8.67;;
29954;SDS011;68448;51.188;6.868;2024-01-25T03:00:57;35.20;;;9.83;;
29954;SDS011;68448;51.188;6.868;2024-01-25T03:03:25;35.33;;;7.80;;
29954;SDS011;68448;51.188;6.868;2024-01-25T03:05:52;35.90;;;10.70;;
29954;SDS011;68448;51.188;6.868;2024-01-25T03:08:19;36.03;;;9.50;;
29954;SDS011;68448;51.188;6.868;2024-01-25T03:10:47;44.10;;;8.93;;
29954;SDS011;68448;51.188;6.868;2024-01-25T03:13:14;35.60;;;8.90;;
29954;SDS011;68448;51.188;6.868;2024-01-25T03:15:43;45.87;;;8.77;;
29954;SDS011;68448;51.188;6.868;2024-01-25T03:18:11;41.40;;;10.83;;
29954;SDS011;68448;51.188;6.868;2024-01-25T03:20:38;30.67;;;8.03;;
29954;SDS011;68448;51.188;6.868;2024-01-25T03:23:05;50.60;;;10.40;;
29954;SDS011;68448;51.188;6.868;2024-01-25T03:25:33;35.90;;;8.93;;
29954;SDS011;68448;51.188;6.868;2024-01-25T03:28:00;39.83;;;8.90;;
29954;SDS011;68448;51.188;6.868;2024-01-25T03:30:28;32.80;;;11.50;;
29954;SDS011;68448;51.188;6.868;2024-01-25T03:32:56;42.87;;;9.53;;
29954;SDS011;68448;51.188;6.868;2024-01-25T03:35:23;41.63;;;8.90;;
29954;SDS011;68448;51.188;6.868;2024-01-25T03:37:51;43.20;;;9.60;;
29954;SDS011;68448;51.188;6.868;2024-01-25T03:40:18;44.00;;;9.50;;
29954;SDS011;68448;51.188;6.868;2024-01-25T03:42:45;44.97;;;9.00;;
29954;SDS011;68448;51.188;6.868;2024-01-25T03:45:32;45.80;;;9.13;;
29954;SDS011;68448;51.188;6.868;2024-01-25T03:48:01;41.90;;;9.97;;
29954;SDS011;68448;51.188;6.868;2024-01-25T03:50:29;30.27;;;8.53;;
29954;SDS011;68448;51.188;6.868;2024-01-25T03:52:57;29.90;;;8.43;;
29954;SDS011;68448;51.188;6.868;2024-01-25T03:55:24;46.60;;;10.83;;
29954;SDS011;68448;51.188;6.868;2024-01-25T03:57:51;43.77;;;10.07;;
29954;SDS011;68448;51.188;6.868;2024-01-25T04:00:19;37.30;;;8.93;;
29954;SDS011;68448;51.188;6.868;2024-01-25T04:02:46;34.80;;;9.93;;
29954;SDS011;68448;51.188;6.868;2024-01-25T04:05:15;29.83;;;8.80;;
29954;SDS011;68448;51.188;6.868;2024-01-25T04:07:42;50.93;;;9.83;;
29954;SDS011;68448;51.188;6.868;2024-01-25T04:10:09;34.53;;;7.60;;
29954;SDS011;68448;51.188;6.868;2024-01-25T04:12:37;43.83;;;11.07;;
29954;SDS011;68448;51.188;6.868;2024-01-25T04:15:04;45.37;;;10.40;;
29954;SDS011;68448;51.188;6.868;2024-01-25T04:17:32;71.53;;;11.23;;
29954;SDS011;68448;51.188;6.868;2024-01-25T04:19:59;30.27;;;9.60;;
29954;SDS011;68448;51.188;6.868;2024-01-25T04:22:28;57.60;;;12.00;;
29954;SDS011;68448;51.188;6.868;2024-01-25T04:24:56;33.37;;;9.17;;
29954;SDS011;68448;51.188;6.868;2024-01-25T04:27:23;37.47;;;9.83;;
29954;SDS011;68448;51.188;6.868;2024-01-25T04:29:51;42.03;;;9.27;;
29954;SDS011;68448;51.188;6.868;2024-01-25T04:32:18;39.47;;;9.93;;
29954;SDS011;68448;51.188;6.868;2024-01-25T04:34:45;48.23;;;13.00;;
29954;SDS011;68448;51.188;6.868;2024-01-25T04:37:13;45.67;;;11.37;;
29954;SDS011;68448;51.188;6.868;2024-01-25T04:39:42;53.13;;;11.10;;
29954;SDS011;68448;51.188;6.868;2024-01-25T04:42:09;58.00;;;9.17;;
29954;SDS011;68448;51.188;6.868;2024-01-25T04:44:37;51.53;;;10.17;;
29954;SDS011;68448;51.188;6.868;2024-01-25T04:47:04;47.40;;;10.90;;
29954;SDS011;68448;51.188;6.868;2024-01-25T04:49:31;45.33;;;11.30;;
29954;SDS011;68448;51.188;6.868;2024-01-25T04:51:58;57.37;;;11.60;;
29954;SDS011;68448;51.188;6.868;2024-01-25T04:54:26;42.63;;;10.33;;
29954;SDS011;68448;51.188;6.868;2024-01-25T04:56:54;36.73;;;10.30;;
29954;SDS011;68448;51.188;6.868;2024-01-25T04:59:21;61.80;;;10.23;;
29954;SDS011;68448;51.188;6.868;2024-01-25T05:01:49;42.60;;;10.27;;
29954;SDS011;68448;51.188;6.868;2024-01-25T05:04:16;52.70;;;10.13;;
29954;SDS011;68448;51.188;6.868;2024-01-25T05:06:44;53.90;;;11.13;;
29954;SDS011;68448;51.188;6.868;2024-01-25T05:09:11;53.20;;;10.40;;
29954;SDS011;68448;51.188;6.868;2024-01-25T05:11:38;66.07;;;13.40;;
29954;SDS011;68448;51.188;6.868;2024-01-25T05:14:07;51.50;;;11.60;;
29954;SDS011;68448;51.188;6.868;2024-01-25T05:16:34;42.80;;;11.30;;
29954;SDS011;68448;51.188;6.868;2024-01-25T05:19:01;54.30;;;10.60;;
29954;SDS011;68448;51.188;6.868;2024-01-25T05:21:29;59.17;;;11.37;;
29954;SDS011;68448;51.188;6.868;2024-01-25T05:23:56;52.07;;;10.77;;
29954;SDS011;68448;51.188;6.868;2024-01-25T05:26:23;53.73;;;10.83;;
29954;SDS011;68448;51.188;6.868;2024-01-25T05:28:51;36.00;;;10.40;;
29954;SDS011;68448;51.188;6.868;2024-01-25T05:31:19;56.73;;;12.40;;
29954;SDS011;68448;51.188;6.868;2024-01-25T05:33:46;35.67;;;8.80;;
29954;SDS011;68448;51.188;6.868;2024-01-25T05:36:14;45.97;;;9.07;;
29954;SDS011;68448;51.188;6.868;2024-01-25T05:38:41;54.10;;;12.10;;
29954;SDS011;68448;51.188;6.868;2024-01-25T05:41:08;54.17;;;11.67;;
29954;SDS011;68448;51.188;6.868;2024-01-25T05:43:37;57.40;;;12.47;;
29954;SDS011;68448;51.188;6.868;2024-01-25T05:46:04;52.67;;;12.97;;
29954;SDS011;68448;51.188;6.868;2024-01-25T05:48:33;63.63;;;12.60;;
29954;SDS011;68448;51.188;6.868;2024-01-25T05:51:01;62.00;;;11.77;;
29954;SDS011;68448;51.188;6.868;2024-01-25T05:53:28;54.10;;;11.00;;
29954;SDS011;68448;51.188;6.868;2024-01-25T05:55:55;58.10;;;10.60;;
29954;SDS011;68448;51.188;6.868;2024-01-25T05:58:23;60.30;;;10.60;;
29954;SDS011;68448;51.188;6.868;2024-01-25T06:00:50;53.77;;;11.77;;
29954;SDS011;68448;51.188;6.868;2024-01-25T06:03:17;56.57;;;12.30;;
29954;SDS011;68448;51.188;6.868;2024-01-25T06:05:46;74.93;;;13.97;;
29954;SDS011;68448;51.188;6.868;2024-01-25T06:08:14;54.37;;;11.53;;
29954;SDS011;68448;51.188;6.868;2024-01-25T06:10:41;50.57;;;11.90;;
29954;SDS011;68448;51.188;6.868;2024-01-25T06:13:08;55.80;;;11.03;;
29954;SDS011;68448;51.188;6.868;2024-01-25T06:15:36;71.50;;;12.50;;
29954;SDS011;68448;51.188;6.868;2024-01-25T06:18:04;70.83;;;13.60;;
29954;SDS011;68448;51.188;6.868;2024-01-25T06:20:31;63.03;;;12.87;;
29954;SDS011;68448;51.188;6.868;2024-01-25T06:23:00;57.43;;;11.27;;
29954;SDS011;68448;51.188;6.868;2024-01-25T06:25:27;59.30;;;11.53;;
29954;SDS011;68448;51.188;6.868;2024-01-25T06:27:54;55.60;;;12.90;;
29954;SDS011;68448;51.188;6.868;2024-01-25T06:30:22;55.77;;;18.00;;
29954;SDS011;68448;51.188;6.868;2024-01-25T06:32:49;49.67;;;11.70;;
29954;SDS011;68448;51.188;6.868;2024-01-25T06:35:16;55.27;;;11.17;;
29954;SDS011;68448;51.188;6.868;2024-01-25T06:37:44;72.23;;;13.13;;
29954;SDS011;68448;51.188;6.868;2024-01-25T06:40:14;61.00;;;11.50;;
29954;SDS011;68448;51.188;6.868;2024-01-25T06:42:41;61.63;;;12.20;;
29954;SDS011;68448;51.188;6.868;2024-01-25T06:45:09;53.03;;;12.73;;
29954;SDS011;68448;51.188;6.868;2024-01-25T06:47:36;52.13;;;13.17;;
29954;SDS011;68448;51.188;6.868;2024-01-25T06:50:04;44.70;;;11.73;;
29954;SDS011;68448;51.188;6.868;2024-01-25T06:52:32;64.60;;;13.90;;
29954;SDS011;68448;51.188;6.868;2024-01-25T06:55:00;52.13;;;12.33;;
29954;SDS011;68448;51.188;6.868;2024-01-25T06:57:29;50.00;;;11.10;;
29954;SDS011;68448;51.188;6.868;2024-01-25T06:59:56;51.53;;;12.37;;
29954;SDS011;68448;51.188;6.868;2024-01-25T07:02:23;67.03;;;13.43;;
29954;SDS011;68448;51.188;6.868;2024-01-25T07:04:51;47.57;;;11.93;;
29954;SDS011;68448;51.188;6.868;2024-01-25T07:07:19;54.43;;;11.90;;
29954;SDS011;68448;51.188;6.868;2024-01-25T07:09:46;46.53;;;11.33;;
29954;SDS011;68448;51.188;6.868;2024-01-25T07:12:14;53.53;;;12.20;;
29954;SDS011;68448;51.188;6.868;2024-01-25T07:14:42;51.97;;;12.70;;
29954;SDS011;68448;51.188;6.868;2024-01-25T07:17:09;59.23;;;12.20;;
29954;SDS011;68448;51.188;6.868;2024-01-25T07:19:37;50.50;;;13.07;;
29954;SDS011;68448;51.188;6.868;2024-01-25T07:22:04;49.63;;;12.07;;
29954;SDS011;68448;51.188;6.868;2024-01-25T07:24:31;47.93;;;11.60;;
29954;SDS011;68448;51.188;6.868;2024-01-25T07:26:59;45.40;;;10.90;;
29954;SDS011;68448;51.188;6.868;2024-01-25T07:29:26;57.83;;;12.47;;
29954;SDS011;68448;51.188;6.868;2024-01-25T07:31:55;49.60;;;11.90;;
29954;SDS011;68448;51.188;6.868;2024-01-25T07:34:22;54.00;;;11.27;;
29954;SDS011;68448;51.188;6.868;2024-01-25T07:36:50;54.63;;;12.20;;
29954;SDS011;68448;51.188;6.868;2024-01-25T07:39:17;49.30;;;12.23;;
29954;SDS011;68448;51.188;6.868;2024-01-25T07:41:44;37.17;;;9.70;;
29954;SDS011;68448;51.188;6.868;2024-01-25T07:44:11;50.00;;;11.90;;
29954;SDS011;68448;51.188;6.868;2024-01-25T07:46:39;52.40;;;10.90;;
29954;SDS011;68448;51.188;6.868;2024-01-25T07:49:08;45.07;;;11.57;;
29954;SDS011;68448;51.188;6.868;2024-01-25T07:51:36;55.13;;;11.80;;
29954;SDS011;68448;51.188;6.868;2024-01-25T07:54:04;43.67;;;10.50;;
29954;SDS011;68448;51.188;6.868;2024-01-25T07:56:31;46.67;;;11.27;;
29954;SDS011;68448;51.188;6.868;2024-01-25T07:58:59;45.63;;;11.43;;
29954;SDS011;68448;51.188;6.868;2024-01-25T08:01:26;60.27;;;12.53;;
29954;SDS011;68448;51.188;6.868;2024-01-25T08:03:54;49.80;;;11.70;;
29954;SDS011;68448;51.188;6.868;2024-01-25T08:06:23;50.53;;;12.30;;
29954;SDS011;68448;51.188;6.868;2024-01-25T08:08:50;64.13;;;14.67;;
29954;SDS011;68448;51.188;6.868;2024-01-25T08:11:18;62.27;;;14.53;;
29954;SDS011;68448;51.188;6.868;2024-01-25T08:13:45;62.50;;;13.90;;
29954;SDS011;68448;51.188;6.868;2024-01-25T08:16:12;57.67;;;12.77;;
29954;SDS011;68448;51.188;6.868;2024-01-25T08:18:40;46.10;;;11.90;;
29954;SDS011;68448;51.188;6.868;2024-01-25T08:21:07;54.93;;;12.93;;
29954;SDS011;68448;51.188;6.868;2024-01-25T08:23:36;55.80;;;12.83;;
29954;SDS011;68448;51.188;6.868;2024-01-25T08:26:03;58.30;;;10.97;;
29954;SDS011;68448;51.188;6.868;2024-01-25T08:28:30;60.77;;;12.63;;
29954;SDS011;68448;51.188;6.868;2024-01-25T08:30:59;35.07;;;10.47;;
29954;SDS011;68448;51.188;6.868;2024-01-25T08:33:26;39.73;;;12.90;;
29954;SDS011;68448;51.188;6.868;2024-01-25T08:35:54;48.90;;;11.67;;
29954;SDS011;68448;51.188;6.868;2024-01-25T08:38:22;48.47;;;13.40;;
29954;SDS011;68448;51.188;6.868;2024-01-25T08:40:51;44.30;;;11.53;;
29954;SDS011;68448;51.188;6.868;2024-01-25T08:43:18;40.00;;;11.90;;
29954;SDS011;68448;51.188;6.868;2024-01-25T08:45:45;55.13;;;12.90;;
29954;SDS011;68448;51.188;6.868;2024-01-25T08:48:12;59.00;;;12.50;;
29954;SDS011;68448;51.188;6.868;2024-01-25T08:50:40;48.60;;;11.33;;
29954;SDS011;68448;51.188;6.868;2024-01-25T08:53:07;47.90;;;13.90;;
29954;SDS011;68448;51.188;6.868;2024-01-25T08:55:35;66.73;;;12.80;;
29954;SDS011;68448;51.188;6.868;2024-01-25T08:58:04;50.53;;;13.47;;
29954;SDS011;68448;51.188;6.868;2024-01-25T09:00:31;52.20;;;12.87;;
29954;SDS011;68448;51.188;6.868;2024-01-25T09:02:59;59.90;;;13.60;;
29954;SDS011;68448;51.188;6.868;2024-01-25T09:05:26;43.73;;;13.37;;
29954;SDS011;68448;51.188;6.868;2024-01-25T09:07:53;38.43;;;11.10;;
29954;SDS011;68448;51.188;6.868;2024-01-25T09:10:21;51.77;;;11.43;;
29954;SDS011;68448;51.188;6.868;2024-01-25T09:12:48;43.97;;;11.60;;
29954;SDS011;68448;51.188;6.868;2024-01-25T09:15:18;54.03;;;14.10;;
29954;SDS011;68448;51.188;6.868;2024-01-25T09:17:45;33.73;;;11.90;;
29954;SDS011;68448;51.188;6.868;2024-01-25T09:20:12;37.10;;;12.70;;
29954;SDS011;68448;51.188;6.868;2024-01-25T09:22:40;45.40;;;11.77;;
29954;SDS011;68448;51.188;6.868;2024-01-25T09:25:07;45.27;;;13.33;;
29954;SDS011;68448;51.188;6.868;2024-01-25T09:27:35;41.37;;;12.10;;
29954;SDS011;68448;51.188;6.868;2024-01-25T09:30:03;49.97;;;13.40;;
29954;SDS011;68448;51.188;6.868;2024-01-25T09:32:32;53.00;;;14.90;;
29954;SDS011;68448;51.188;6.868;2024-01-25T09:34:59;47.27;;;13.17;;
29954;SDS011;68448;51.188;6.868;2024-01-25T09:37:27;60.10;;;13.67;;
29954;SDS011;68448;51.188;6.868;2024-01-25T09:39:54;37.50;;;12.83;;
29954;SDS011;68448;51.188;6.868;2024-01-25T09:42:22;50.53;;;12.03;;
29954;SDS011;68448;51.188;6.868;2024-01-25T09:44:49;41.73;;;11.90;;
29954;SDS011;68448;51.188;6.868;2024-01-25T09:47:17;36.17;;;12.03;;
29954;SDS011;68448;51.188;6.868;2024-01-25T09:49:47;40.17;;;11.17;;
29954;SDS011;68448;51.188;6.868;2024-01-25T09:52:14;45.23;;;12.73;;
29954;SDS011;68448;51.188;6.868;2024-01-25T09:54:43;38.80;;;12.20;;
29954;SDS011;68448;51.188;6.868;2024-01-25T09:57:12;34.23;;;12.93;;
29954;SDS011;68448;51.188;6.868;2024-01-25T09:59:40;52.10;;;13.73;;
29954;SDS011;68448;51.188;6.868;2024-01-25T10:02:08;45.30;;;12.97;;
29954;SDS011;68448;51.188;6.868;2024-01-25T10:04:36;34.50;;;12.50;;
29954;SDS011;68448;51.188;6.868;2024-01-25T10:07:05;36.40;;;13.30;;
29954;SDS011;68448;51.188;6.868;2024-01-25T10:09:37;34.40;;;11.43;;
29954;SDS011;68448;51.188;6.868;2024-01-25T10:12:05;43.23;;;12.57;;
29954;SDS011;68448;51.188;6.868;2024-01-25T10:14:44;40.17;;;12.50;;
29954;SDS011;68448;51.188;6.868;2024-01-25T10:17:11;38.17;;;12.50;;
29954;SDS011;68448;51.188;6.868;2024-01-25T10:19:42;49.47;;;12.80;;
29954;SDS011;68448;51.188;6.868;2024-01-25T10:22:12;45.67;;;13.27;;
29954;SDS011;68448;51.188;6.868;2024-01-25T10:24:41;30.27;;;13.57;;
29954;SDS011;68448;51.188;6.868;2024-01-25T10:27:09;41.53;;;13.20;;
29954;SDS011;68448;51.188;6.868;2024-01-25T10:29:37;46.23;;;13.80;;
29954;SDS011;68448;51.188;6.868;2024-01-25T10:32:05;51.83;;;14.00;;
29954;SDS011;68448;51.188;6.868;2024-01-25T10:34:35;36.57;;;12.47;;
29954;SDS011;68448;51.188;6.868;2024-01-25T10:37:03;45.13;;;12.77;;
29954;SDS011;68448;51.188;6.868;2024-01-25T10:39:32;56.70;;;14.27;;
29954;SDS011;68448;51.188;6.868;2024-01-25T10:41:59;44.50;;;12.63;;
29954;SDS011;68448;51.188;6.868;2024-01-25T10:44:27;52.33;;;13.17;;
29954;SDS011;68448;51.188;6.868;2024-01-25T10:46:54;46.67;;;13.70;;
29954;SDS011;68448;51.188;6.868;2024-01-25T10:49:22;31.90;;;11.03;;
29954;SDS011;68448;51.188;6.868;2024-01-25T10:51:50;35.67;;;12.40;;
29954;SDS011;68448;51.188;6.868;2024-01-25T10:54:17;38.77;;;12.93;;
29954;SDS011;68448;51.188;6.868;2024-01-25T10:56:47;36.60;;;11.47;;
29954;SDS011;68448;51.188;6.868;2024-01-25T10:59:15;46.03;;;13.70;;
29954;SDS011;68448;51.188;6.868;2024-01-25T11:01:43;45.60;;;12.43;;
29954;SDS011;68448;51.188;6.868;2024-01-25T11:04:12;41.77;;;12.30;;
29954;SDS011;68448;51.188;6.868;2024-01-25T11:06:39;37.60;;;12.43;;
29954;SDS011;68448;51.188;6.868;2024-01-25T11:09:07;32.60;;;11.50;;
29954;SDS011;68448;51.188;6.868;2024-01-25T11:11:35;44.57;;;12.60;;
29954;SDS011;68448;51.188;6.868;2024-01-25T11:14:04;56.77;;;14.73;;
29954;SDS011;68448;51.188;6.868;2024-01-25T11:16:31;54.23;;;13.20;;
29954;SDS011;68448;51.188;6.868;2024-01-25T11:18:59;37.77;;;14.00;;
29954;SDS011;68448;51.188;6.868;2024-01-25T11:21:27;41.43;;;14.40;;
29954;SDS011;68448;51.188;6.868;2024-01-25T11:23:58;43.73;;;14.07;;
29954;SDS011;68448;51.188;6.868;2024-01-25T11:26:26;45.10;;;14.80;;
29954;SDS011;68448;51.188;6.868;2024-01-25T11:28:53;51.43;;;16.50;;
29954;SDS011;68448;51.188;6.868;2024-01-25T11:31:21;41.37;;;13.33;;
29954;SDS011;68448;51.188;6.868;2024-01-25T11:33:49;48.17;;;13.70;;
29954;SDS011;68448;51.188;6.868;2024-01-25T11:36:19;35.50;;;12.80;;
29954;SDS011;68448;51.188;6.868;2024-01-25T11:38:47;53.23;;;16.40;;
29954;SDS011;68448;51.188;6.868;2024-01-25T11:41:14;40.80;;;16.57;;
29954;SDS011;68448;51.188;6.868;2024-01-25T11:43:41;36.43;;;14.10;;
29954;SDS011;68448;51.188;6.868;2024-01-25T11:46:09;49.87;;;15.40;;
29954;SDS011;68448;51.188;6.868;2024-01-25T11:48:39;39.37;;;15.83;;
29954;SDS011;68448;51.188;6.868;2024-01-25T11:51:09;43.60;;;16.57;;
29954;SDS011;68448;51.188;6.868;2024-01-25T11:53:36;45.90;;;17.10;;
29954;SDS011;68448;51.188;6.868;2024-01-25T11:56:03;42.77;;;15.70;;
29954;SDS011;68448;51.188;6.868;2024-01-25T11:58:31;54.40;;;17.03;;
29954;SDS011;68448;51.188;6.868;2024-01-25T12:01:02;52.23;;;17.93;;
29954;SDS011;68448;51.188;6.868;2024-01-25T12:03:29;43.30;;;17.40;;
29954;SDS011;68448;51.188;6.868;2024-01-25T12:05:58;44.60;;;17.27;;
29954;SDS011;68448;51.188;6.868;2024-01-25T12:08:26;52.43;;;17.60;;
29954;SDS011;68448;51.188;6.868;2024-01-25T12:11:01;44.40;;;18.73;;
29954;SDS011;68448;51.188;6.868;2024-01-25T12:13:31;49.03;;;16.50;;
29954;SDS011;68448;51.188;6.868;2024-01-25T12:15:58;50.37;;;15.47;;
29954;SDS011;68448;51.188;6.868;2024-01-25T12:18:25;53.97;;;18.37;;
29954;SDS011;68448;51.188;6.868;2024-01-25T12:20:53;50.73;;;18.90;;
29954;SDS011;68448;51.188;6.868;2024-01-25T12:23:21;43.17;;;16.57;;
29954;SDS011;68448;51.188;6.868;2024-01-25T12:25:48;49.80;;;17.73;;
29954;SDS011;68448;51.188;6.868;2024-01-25T12:28:16;45.43;;;17.30;;
29954;SDS011;68448;51.188;6.868;2024-01-25T12:30:43;40.77;;;16.37;;
29954;SDS011;68448;51.188;6.868;2024-01-25T12:33:10;59.57;;;18.53;;
29954;SDS011;68448;51.188;6.868;2024-01-25T12:35:38;54.40;;;18.50;;
29954;SDS011;68448;51.188;6.868;2024-01-25T12:38:06;60.07;;;19.77;;
29954;SDS011;68448;51.188;6.868;2024-01-25T12:40:34;52.90;;;17.87;;
29954;SDS011;68448;51.188;6.868;2024-01-25T12:43:03;49.27;;;15.00;;
29954;SDS011;68448;51.188;6.868;2024-01-25T12:45:30;37.97;;;15.77;;
29954;SDS011;68448;51.188;6.868;2024-01-25T12:47:57;39.47;;;16.07;;
29954;SDS011;68448;51.188;6.868;2024-01-25T12:50:25;49.60;;;19.57;;
29954;SDS011;68448;51.188;6.868;2024-01-25T12:52:52;52.63;;;16.37;;
29954;SDS011;68448;51.188;6.868;2024-01-25T12:55:20;45.10;;;17.30;;
29954;SDS011;68448;51.188;6.868;2024-01-25T12:57:48;48.10;;;15.83;;
29954;SDS011;68448;51.188;6.868;2024-01-25T13:00:17;43.60;;;15.70;;
29954;SDS011;68448;51.188;6.868;2024-01-25T13:02:44;44.60;;;17.57;;
29954;SDS011;68448;51.188;6.868;2024-01-25T13:05:12;51.50;;;16.90;;
29954;SDS011;68448;51.188;6.868;2024-01-25T13:07:39;42.07;;;15.47;;
29954;SDS011;68448;51.188;6.868;2024-01-25T13:10:08;53.80;;;15.50;;
29954;SDS011;68448;51.188;6.868;2024-01-25T13:12:35;39.03;;;15.67;;
29954;SDS011;68448;51.188;6.868;2024-01-25T13:15:04;53.17;;;17.03;;
29954;SDS011;68448;51.188;6.868;2024-01-25T13:17:33;46.47;;;15.20;;
29954;SDS011;68448;51.188;6.868;2024-01-25T13:20:01;43.97;;;16.90;;
29954;SDS011;68448;51.188;6.868;2024-01-25T13:22:28;49.53;;;15.60;;
29954;SDS011;68448;51.188;6.868;2024-01-25T13:24:56;41.20;;;16.17;;
29954;SDS011;68448;51.188;6.868;2024-01-25T13:27:23;46.07;;;15.30;;
29954;SDS011;68448;51.188;6.868;2024-01-25T13:29:50;37.63;;;14.87;;
29954;SDS011;68448;51.188;6.868;2024-01-25T13:32:19;46.27;;;15.87;;
29954;SDS011;68448;51.188;6.868;2024-01-25T13:34:46;52.80;;;14.87;;
29954;SDS011;68448;51.188;6.868;2024-01-25T13:37:13;42.63;;;14.60;;
29954;SDS011;68448;51.188;6.868;2024-01-25T13:39:41;44.30;;;13.77;;
29954;SDS011;68448;51.188;6.868;2024-01-25T13:42:09;40.90;;;13.60;;
29954;SDS011;68448;51.188;6.868;2024-01-25T13:44:36;41.20;;;14.17;;
29954;SDS011;68448;51.188;6.868;2024-01-25T13:47:03;39.40;;;14.00;;
29954;SDS011;68448;51.188;6.868;2024-01-25T13:49:32;38.50;;;14.63;;
29954;SDS011;68448;51.188;6.868;2024-01-25T13:52:00;41.80;;;13.20;;
29954;SDS011;68448;51.188;6.868;2024-01-25T13:54:28;41.30;;;12.97;;
29954;SDS011;68448;51.188;6.868;2024-01-25T13:56:55;46.23;;;12.90;;
29954;SDS011;68448;51.188;6.868;2024-01-25T13:59:23;40.53;;;12.37;;
29954;SDS011;68448;51.188;6.868;2024-01-25T14:01:50;43.90;;;13.90;;
29954;SDS011;68448;51.188;6.868;2024-01-25T14:04:17;45.40;;;12.73;;
29954;SDS011;68448;51.188;6.868;2024-01-25T14:06:46;44.23;;;12.53;;
29954;SDS011;68448;51.188;6.868;2024-01-25T14:09:13;50.07;;;13.97;;
29954;SDS011;68448;51.188;6.868;2024-01-25T14:11:41;32.37;;;11.40;;
29954;SDS011;68448;51.188;6.868;2024-01-25T14:14:08;41.87;;;11.93;;
29954;SDS011;68448;51.188;6.868;2024-01-25T14:16:36;45.87;;;14.47;;
29954;SDS011;68448;51.188;6.868;2024-01-25T14:19:03;44.97;;;12.60;;
29954;SDS011;68448;51.188;6.868;2024-01-25T14:21:31;34.63;;;11.50;;
29954;SDS011;68448;51.188;6.868;2024-01-25T14:24:00;34.47;;;11.10;;
29954;SDS011;68448;51.188;6.868;2024-01-25T14:26:27;43.07;;;13.10;;
29954;SDS011;68448;51.188;6.868;2024-01-25T14:28:54;29.63;;;10.97;;